Latest Coastal Weather Observations for Bunbury

IDW60701

Issued at 7:25 am WST Wednesday 26 November 2014 (issued every 10 minutes, with the page automatically refreshed every 10 minutes)

About coastal observations | Map of coastal stations | Coastal observations for WA | Marine services | Other Formats
Station Details ID: 009965 Name: BUNBURY Lat: -33.36 Lon: 115.64 Height: 5.2 m
Data from the previous 72 hours. | See also: Recent months at Bunbury
Date/Time
WST
Temp

°C
Wind Pressure Rain
since 9am
mm
Weather Cloud Vis
km
Sea
Height
m
Swell
Dir
 
Speed
knots
Gust
knots
hPa Trend Height
m
Period
s
Dir
26/07:00am 19.7 E 13 21 1020.2 - 0.0 - - - - - - -
26/06:30am 18.9 E 16 21 1020.2 - 0.0 - - - - - - -
26/06:00am 18.6 E 10 18 1011.8 - 0.0 - - - - - - -
26/05:30am 18.6 E 8 15 1020.9 - 0.0 - - - - - - -
26/05:00am 17.9 ESE 9 16 1020.8 - 0.0 - - - - - - -
26/04:30am 17.5 ESE 11 16 1017.3 - 0.0 - - - - - - -
26/04:00am 17.1 ESE 10 15 1020.0 - 0.0 - - - - - - -
26/03:30am 17.1 ESE 10 16 1019.6 - 0.0 - - - - - - -
26/03:00am 17.5 ESE 11 14 1019.7 - 0.0 - - - - - - -
26/02:30am 17.8 ESE 10 15 1019.8 - 0.0 - - - - - - -
26/02:00am 17.9 ESE 10 15 1019.9 - 0.0 - - - - - - -
26/01:30am 18.4 ESE 11 17 1011.1 - 0.0 - - - - - - -
26/01:00am 18.6 ESE 11 16 1020.5 - 0.0 - - - - - - -
26/12:30am 18.9 ESE 13 19 1020.7 - 0.0 - - - - - - -
26/12:00am 19.6 ESE 12 19 1011.4 - 0.0 - - - - - - -
 
Date/Time
WST
Temp

°C
Wind Pressure Rain
since 9am
mm
Weather Cloud Vis
km
Sea
Height
m
Swell
Dir
 
Speed
knots
Gust
knots
hPa Trend Height
m
Period
s
Dir
25/11:30pm 20.3 ESE 14 21 1021.1 - 0.0 - - - - - - -
25/11:00pm 20.9 ESE 11 20 1015.9 - 0.0 - - - - - - -
25/10:30pm 21.9 ESE 11 18 1021.5 - 0.0 - - - - - - -
25/10:00pm 22.6 ESE 12 17 1021.3 - 0.0 - - - - - - -
25/09:30pm 22.5 ESE 12 19 1021.3 - 0.0 - - - - - - -
25/09:00pm 21.8 SSE 7 9 1021.3 - 0.0 - - - - - - -
25/08:30pm 22.6 S 7 10 1017.6 - 0.0 - - - - - - -
25/08:00pm 23.9 S 6 7 1021.3 - 0.0 - - - - - - -
25/07:30pm 24.5 SSE 5 7 1021.3 - 0.0 - - - - - - -
25/07:00pm 26.2 SSE 6 8 1021.3 - 0.0 - - - - - - -
25/06:30pm 28.0 SSE 8 13 1021.4 - 0.0 - - - - - - -
25/06:00pm 28.7 SE 8 12 1021.4 - 0.0 - - - - - - -
25/05:30pm 29.5 SSE 9 15 1021.0 - 0.0 - - - - - - -
25/05:00pm 30.0 SE 9 13 1021.0 - 0.0 - - - - - - -
25/04:30pm 30.3 SSE 8 10 1020.8 - 0.0 - - - - - - -
25/04:00pm 30.9 E 8 15 1020.8 - 0.0 - - - - - - -
25/03:30pm 31.1 SE 9 14 1020.8 - 0.0 - - - - - - -
25/03:00pm 30.7 E 8 13 1020.8 - 0.0 - - - - - - -
25/02:30pm 30.6 ENE 10 14 1021.0 - 0.0 - - - - - - -
25/02:00pm 30.1 E 4 9 1018.2 - 0.0 - - - - - - -
25/01:30pm 30.4 E 7 14 1021.3 - 0.0 - - - - - - -
25/01:00pm 29.4 ESE 5 12 1021.4 - 0.0 - - - - - - -
25/12:30pm 29.3 E 7 13 1021.7 - 0.0 - - - - - - -
25/12:00pm 28.3 E 8 13 1021.8 - 0.0 - - - - - - -
25/11:30am 27.9 ESE 9 14 1022.1 - 0.0 - - - - - - -
25/11:00am 27.1 ESE 8 13 1022.2 - 0.0 - - - - - - -
25/10:30am 25.6 E 10 14 1022.6 - 0.0 - - - - - - -
25/10:00am 24.5 E 10 16 1022.9 - 0.0 - - - - - - -
25/09:30am 23.2 E 11 16 1023.1 - 0.0 - - - - - - -
25/09:00am 21.7 E 12 16 1013.7 - 0.0 - - - - - - -
25/08:30am 20.1 E 14 20 1023.5 - 0.0 - - - - - - -
25/08:00am 19.6 ESE 9 14 1023.7 - 0.0 - - - - - - -
25/07:30am 18.2 E 9 14 1023.7 - 0.0 - - - - - - -
25/07:00am 16.9 E 9 14 1023.9 - 0.0 - - - - - - -
25/06:30am 15.0 ESE 8 11 1024.2 - 0.0 - - - - - - -
25/06:00am 13.6 SE 7 9 1017.2 - 0.0 - - - - - - -
25/05:30am 12.2 SSE 5 7 1023.5 - 0.0 - - - - - - -
25/05:00am 11.8 SSE 3 4 1023.1 - 0.0 - - - - - - -
25/04:30am 12.6 SSE 4 6 1022.9 - 0.0 - - - - - - -
25/04:00am 12.8 ESE 5 8 1022.7 - 0.0 - - - - - - -
25/03:30am 13.5 ESE 6 8 1022.7 - 0.0 - - - - - - -
25/03:00am 14.2 ESE 8 12 1022.7 - 0.0 - - - - - - -
25/02:30am 14.6 ESE 8 13 1022.6 - 0.0 - - - - - - -
25/02:00am 14.9 ESE 8 11 1022.7 - 0.0 - - - - - - -
25/01:30am 15.4 ESE 9 14 1019.7 - 0.0 - - - - - - -
25/01:00am 15.2 SE 9 14 1022.1 - 0.0 - - - - - - -
25/12:30am 15.5 SE 9 13 1023.3 - 0.0 - - - - - - -
25/12:00am 15.9 SE 11 17 1022.5 - 0.0 - - - - - - -
 
Date/Time
WST
Temp

°C
Wind Pressure Rain
since 9am
mm
Weather Cloud Vis
km
Sea
Height
m
Swell
Dir
 
Speed
knots
Gust
knots
hPa Trend Height
m
Period
s
Dir
24/11:30pm 15.8 SE 9 13 1023.6 - 0.0 - - - - - - -
24/11:00pm 16.0 SE 11 16 1023.8 - 0.0 - - - - - - -
24/10:30pm 16.3 SE 10 16 1024.1 - 0.0 - - - - - - -
24/10:00pm 16.8 SSE 8 12 1024.2 - 0.0 - - - - - - -
24/09:30pm 16.7 SE 8 12 1022.7 - 0.0 - - - - - - -
24/09:00pm 17.0 SSE 10 15 1019.1 - 0.0 - - - - - - -
24/08:30pm 17.1 SSE 9 14 1022.3 - 0.0 - - - - - - -
24/08:00pm 17.5 S 10 17 1023.8 - 0.0 - - - - - - -
24/07:30pm 17.8 S 11 17 1023.6 - 0.0 - - - - - - -
24/07:00pm 18.5 S 13 20 1023.5 - 0.0 - - - - - - -
24/06:30pm 19.8 S 12 20 1023.3 - 0.0 - - - - - - -
24/06:00pm 21.3 S 11 16 1020.3 - 0.0 - - - - - - -
24/05:30pm 23.0 SW 8 12 1022.7 - 0.0 - - - - - - -
24/05:00pm 21.9 SW 11 16 1022.5 - 0.0 - - - - - - -
24/04:30pm 21.3 WSW 10 16 1019.4 - 0.0 - - - - - - -
24/04:00pm 21.5 WSW 10 16 1022.3 - 0.0 - - - - - - -
24/03:30pm 21.0 W 12 18 1022.3 - 0.0 - - - - - - -
24/03:00pm 20.8 WSW 12 16 1013.1 - 0.0 - - - - - - -
24/02:30pm 20.5 W 13 18 1022.4 - 0.0 - - - - - - -
24/02:00pm 21.5 WSW 11 14 1022.3 - 0.0 - - - - - - -
24/01:30pm 20.4 W 11 16 1022.5 - 0.0 - - - - - - -
24/01:00pm 21.5 W 6 14 1022.6 - 0.0 - - - - - - -
24/12:30pm 22.6 E 4 11 1022.8 - 0.0 - - - - - - -
24/12:00pm 22.4 S 7 13 1023.0 - 0.0 - - - - - - -
24/11:30am 21.4 SE 5 11 1023.3 - 0.0 - - - - - - -
24/11:00am 21.8 SE 7 11 1023.4 - 0.0 - - - - - - -
24/10:30am 20.1 ESE 7 12 1009.6 - 0.0 - - - - - - -
24/10:00am 19.1 ESE 6 10 1023.6 - 0.0 - - - - - - -
24/09:30am 18.4 SE 9 14 1023.5 - 0.0 - - - - - - -
24/09:00am 17.6 SE 9 13 1023.6 - 0.0 - - - - - - -
24/08:30am 16.8 E 11 15 1023.5 - 0.0 - - - - - - -
24/08:00am 15.9 ESE 9 12 1023.4 - 0.0 - - - - - - -
24/07:30am 14.7 SE 6 8 1023.1 - 0.0 - - - - - - -
24/07:00am 12.9 ESE 5 7 1022.7 - 0.0 - - - - - - -
24/06:30am 11.2 SE 5 7 1022.4 - 0.0 - - - - - - -
24/06:00am 9.8 SE 5 8 1023.3 - 0.0 - - - - - - -
24/05:30am 6.2 SSW 2 3 1022.0 - 0.0 - - - - - - -
24/05:00am 6.0 CALM 0 2 1021.6 - 0.0 - - - - - - -
24/04:30am 5.7 SSE 3 4 1022.9 - 0.0 - - - - - - -
24/04:00am 6.5 ESE 4 4 1020.9 - 0.0 - - - - - - -
24/03:30am 8.3 SE 5 7 1020.7 - 0.0 - - - - - - -
24/03:00am 8.0 SSE 3 5 1022.4 - 0.0 - - - - - - -
24/02:30am 8.5 SSE 5 7 1020.5 - 0.0 - - - - - - -
24/02:00am 8.4 S 3 4 1020.2 - 0.0 - - - - - - -
24/01:30am 8.7 SSE 2 4 1020.4 - 0.0 - - - - - - -
24/01:00am 9.5 SSE 4 6 1020.5 - 0.0 - - - - - - -
24/12:30am 9.1 S 3 4 1020.5 - 0.0 - - - - - - -
24/12:00am 9.4 S 3 4 1020.5 - 0.0 - - - - - - -
 
Date/Time
WST
Temp

°C
Wind Pressure Rain
since 9am
mm
Weather Cloud Vis
km
Sea
Height
m
Swell
Dir
 
Speed
knots
Gust
knots
hPa Trend Height
m
Period
s
Dir
23/11:30pm 10.4 S 3 5 1020.5 - 0.0 - - - - - - -
23/11:00pm 10.7 SSE 3 5 1020.4 - 0.0 - - - - - - -
23/10:30pm 11.3 S 5 7 1020.4 - 0.0 - - - - - - -
23/10:00pm 11.7 S 6 9 1020.3 - 0.0 - - - - - - -
23/09:30pm 12.2 S 7 11 1020.4 - 0.0 - - - - - - -
23/09:00pm 12.7 S 6 8 1020.3 - 0.0 - - - - - - -
23/08:30pm 13.3 S 8 11 1019.9 - 0.0 - - - - - - -
23/08:00pm 13.9 S 8 12 1019.4 - 0.0 - - - - - - -
23/07:30pm 14.8 S 9 13 1019.0 - 0.0 - - - - - - -
23/07:00pm 15.8 S 11 16 1018.5 - 0.0 - - - - - - -
23/06:30pm 16.9 S 12 18 1018.0 - 0.0 - - - - - - -
23/06:00pm 18.0 S 12 16 1019.4 - 0.0 - - - - - - -
23/05:30pm 19.1 S 11 17 1016.8 - 0.0 - - - - - - -
23/05:00pm 20.0 SSW 12 17 1016.3 - 0.0 - - - - - - -
23/04:30pm 20.8 WSW 11 18 1018.0 - 0.0 - - - - - - -
23/04:00pm 20.6 WSW 11 17 1015.7 - 0.0 - - - - - - -
23/03:30pm 20.9 WSW 13 18 1015.3 - 0.0 - - - - - - -
23/03:00pm 20.2 WSW 13 20 1008.6 - 0.0 - - - - - - -
23/02:30pm 21.2 WSW 13 22 1015.0 - 0.0 - - - - - - -
23/02:00pm 20.8 WSW 12 16 1014.9 - 0.0 - - - - - - -
23/01:30pm 21.0 WSW 11 18 1014.8 - 0.0 - - - - - - -
23/01:00pm 20.2 WSW 12 18 1014.8 - 0.0 - - - - - - -
23/12:30pm 21.0 WSW 11 17 1014.7 - 0.0 - - - - - - -
23/12:00pm 20.9 WSW 10 17 1014.7 - 0.0 - - - - - - -
23/11:30am 19.7 SW 11 18 1014.6 - 0.0 - - - - - - -
23/11:00am 20.0 WSW 11 16 1014.7 - 0.0 - - - - - - -
23/10:30am 19.6 WSW 10 17 1014.8 - 0.0 - - - - - - -
23/10:00am 18.3 SW 11 16 1014.5 - 0.0 - - - - - - -
23/09:30am 19.4 SSW 8 12 1014.5 - 0.0 - - - - - - -
23/09:00am 18.4 SW 7 13 1014.5 - 0.0 - - - - - - -
23/08:30am 17.9 S 11 17 1014.4 - 0.0 - - - - - - -
23/08:00am 17.6 SSW 8 14 1014.2 - 0.0 - - - - - - -
23/07:30am 16.4 S 9 12 1016.7 - 0.0 - - - - - - -

Other Formats:

Comma delimited format used in spreadsheet applications
http://www.bom.gov.au/fwo/IDW60701/IDW60701.94604.axf

JavaScript Object Notation format (JSON) in row-major order
http://www.bom.gov.au/fwo/IDW60701/IDW60701.94604.json